sim
Sign-in with your pilot id or email,
or register
Callsign
Passwort

Schedule Details

Flight Number: RYR4484 (3)
Departure: Nuremberg Airport (EDDN) at 09:20
Arrival: Thessaloniki International Airport (LGTS) at 11:40
Route: Ryanair Passenger Schedule. Enter filed route here before submitting Pirep.

Weather Information
Getting current METAR information for EDDN 230550Z VRB01KT CAVOK 13/11 Q1027 NOSIG
Getting current METAR information for LGTS 230550Z VRB02KT CAVOK 27/18 Q1019 NOSIG

Schedule Frequency

Route Map